Terminal Aerodrome Forecast
Issued by NWS Lake Charles, LA

Home | Current Version | Previous Version | Text Only | Print | Product List | Glossary On
Versions: 1 2 3 4 5 6 7 8 9 10 11 12 13
437
FTUS44 KLCH 250520
TAFBPT
TAF
KBPT 250520Z 2506/2606 13004KT P6SM SCT025 SCT040 BKN200
     FM251200 10005KT P6SM VCSH SCT025 SCT200
     FM251800 13009KT P6SM VCTS BKN035CB BKN200
     FM260100 12004KT P6SM SCT050 BKN200=

USA.gov is the U.S. government's official web portal to all federal, state and local government web resources and services.